Time;durP1;ratioP1;P1;durP2;ratioP2;P2;SDS_P1;SDS_P2;PMS_P1;PMS_P2;Temp;Humidity;BMP_temperature;BMP_pressure;BME280_temperature;BME280_humidity;BME280_pressure;Samples;Min_cycle;Max_cycle;Signal;HPM_P1;HPM_P2
2023/04/27 00:01:15;;;;;;;3.05;1.65;;;;;;;;;;10325047;28;20027;-57
2023/04/27 00:06:16;;;;;;;2.47;1.45;;;;;;;;;;10325207;28;20023;-56
2023/04/27 00:11:16;;;;;;;1.85;1.40;;;;;;;;;;10324100;28;20030;-56
2023/04/27 00:16:17;;;;;;;1.98;1.42;;;;;;;;;;10324910;28;20037;-57
2023/04/27 00:21:17;;;;;;;4.25;1.50;;;;;;;;;;10329319;28;20023;-57
2023/04/27 00:26:19;;;;;;;1.63;1.40;;;;;;;;;;10325529;28;20038;-57
2023/04/27 00:31:20;;;;;;;0.95;0.95;;;;;;;;;;10323108;28;20029;-56
2023/04/27 00:36:20;;;;;;;2.42;1.30;;;;;;;;;;10328604;28;20026;-57
2023/04/27 00:41:21;;;;;;;2.72;1.50;;;;;;;;;;10327886;28;20427;-54
2023/04/27 00:46:23;;;;;;;2.53;1.42;;;;;;;;;;10323076;28;20042;-57
2023/04/27 00:51:27;;;;;;;2.80;1.30;;;;;;;;;;10324328;28;20659;-57
2023/04/27 00:56:27;;;;;;;4.18;1.33;;;;;;;;;;10321356;28;20109;-58
2023/04/27 01:01:29;;;;;;;2.47;1.88;;;;;;;;;;10323237;28;20027;-58
2023/04/27 01:06:30;;;;;;;1.92;1.40;;;;;;;;;;10309112;28;20258;-57
2023/04/27 01:11:34;;;;;;;3.50;1.40;;;;;;;;;;10322886;28;20026;-57
2023/04/27 01:16:36;;;;;;;1.50;1.40;;;;;;;;;;10324752;28;20105;-57
2023/04/27 01:21:36;;;;;;;1.98;1.17;;;;;;;;;;10323794;28;20025;-58
2023/04/27 01:26:37;;;;;;;2.40;1.50;;;;;;;;;;10323419;28;20027;-56
2023/04/27 01:31:37;;;;;;;2.42;1.48;;;;;;;;;;10324801;28;20374;-56
2023/04/27 01:36:38;;;;;;;2.72;1.35;;;;;;;;;;10322814;28;20545;-60
2023/04/27 01:41:39;;;;;;;1.60;1.48;;;;;;;;;;10324740;28;20042;-56
2023/04/27 01:46:39;;;;;;;2.28;1.40;;;;;;;;;;10331567;28;20026;-56
2023/04/27 01:51:40;;;;;;;2.85;1.40;;;;;;;;;;10329889;28;20030;-57
2023/04/27 01:56:41;;;;;;;2.97;1.50;;;;;;;;;;10330065;28;20025;-59
2023/04/27 02:01:41;;;;;;;1.20;1.10;;;;;;;;;;10328923;28;20085;-57
2023/04/27 02:06:42;;;;;;;2.33;1.33;;;;;;;;;;10329367;28;20049;-60
2023/04/27 02:11:42;;;;;;;1.90;1.30;;;;;;;;;;10328929;28;20218;-60
2023/04/27 02:16:43;;;;;;;1.73;1.20;;;;;;;;;;10330865;28;20027;-57
2023/04/27 02:21:43;;;;;;;2.17;1.30;;;;;;;;;;10316834;28;20026;-60
2023/04/27 02:26:44;;;;;;;1.52;1.13;;;;;;;;;;10329023;28;20313;-56
2023/04/27 02:31:45;;;;;;;1.45;1.35;;;;;;;;;;10329352;28;20045;-56
2023/04/27 02:36:46;;;;;;;2.33;1.40;;;;;;;;;;10328480;28;20050;-57
2023/04/27 02:41:46;;;;;;;1.83;1.35;;;;;;;;;;10328391;28;20030;-56
2023/04/27 02:46:47;;;;;;;2.80;1.25;;;;;;;;;;10327353;28;20084;-56
2023/04/27 02:51:48;;;;;;;2.78;1.50;;;;;;;;;;10325322;28;20083;-57
2023/04/27 02:56:48;;;;;;;1.52;1.42;;;;;;;;;;10327262;28;20030;-57
2023/04/27 03:01:49;;;;;;;2.03;1.40;;;;;;;;;;10335087;28;20030;-56
2023/04/27 03:06:49;;;;;;;1.40;1.30;;;;;;;;;;10327268;28;20038;-55
2023/04/27 03:11:50;;;;;;;1.25;1.10;;;;;;;;;;10328456;28;20092;-57
2023/04/27 03:16:50;;;;;;;2.65;1.52;;;;;;;;;;10326866;28;20166;-56
2023/04/27 03:21:51;;;;;;;1.10;1.02;;;;;;;;;;10325435;28;20085;-55
2023/04/27 03:26:52;;;;;;;1.42;1.27;;;;;;;;;;10327662;28;20026;-57
2023/04/27 03:31:52;;;;;;;1.30;1.10;;;;;;;;;;10326486;28;20030;-59
2023/04/27 03:36:53;;;;;;;2.67;0.95;;;;;;;;;;10326233;28;20050;-56
2023/04/27 03:41:53;;;;;;;1.40;1.20;;;;;;;;;;10325693;28;20378;-57
2023/04/27 03:46:54;;;;;;;1.27;1.15;;;;;;;;;;10325445;28;20022;-57
2023/04/27 03:51:55;;;;;;;2.38;1.30;;;;;;;;;;10326128;28;20094;-60
2023/04/27 03:56:55;;;;;;;1.20;1.10;;;;;;;;;;10325678;28;20018;-54
2023/04/27 04:01:56;;;;;;;0.93;0.93;;;;;;;;;;10324593;28;20045;-56
2023/04/27 04:06:57;;;;;;;1.67;1.10;;;;;;;;;;10325370;28;20442;-60
2023/04/27 04:11:57;;;;;;;1.23;1.13;;;;;;;;;;10324978;28;20037;-59
2023/04/27 04:16:58;;;;;;;1.10;1.02;;;;;;;;;;10325598;28;20041;-54
2023/04/27 04:21:58;;;;;;;1.40;1.30;;;;;;;;;;10295840;28;20030;-57
2023/04/27 04:26:59;;;;;;;1.65;0.98;;;;;;;;;;10324246;28;20382;-60
2023/04/27 04:32:00;;;;;;;0.98;0.98;;;;;;;;;;10324195;28;20494;-56
2023/04/27 04:37:00;;;;;;;1.70;0.98;;;;;;;;;;10325803;28;20498;-56
2023/04/27 04:42:02;;;;;;;1.77;1.40;;;;;;;;;;10324484;28;20073;-59
2023/04/27 04:47:05;;;;;;;1.55;1.45;;;;;;;;;;10324851;28;20173;-56
2023/04/27 04:52:05;;;;;;;1.35;1.25;;;;;;;;;;10324259;28;20069;-59
2023/04/27 04:57:06;;;;;;;1.90;1.10;;;;;;;;;;10324370;28;20426;-59
2023/04/27 05:02:07;;;;;;;1.30;1.20;;;;;;;;;;10324153;28;20085;-60
2023/04/27 05:07:07;;;;;;;1.00;1.00;;;;;;;;;;10323651;28;20026;-60
2023/04/27 05:12:08;;;;;;;1.42;1.17;;;;;;;;;;10322512;28;20046;-60
2023/04/27 05:17:09;;;;;;;1.45;1.10;;;;;;;;;;10329597;28;20101;-60
2023/04/27 05:22:09;;;;;;;0.90;0.90;;;;;;;;;;10333417;28;20026;-60
2023/04/27 05:27:13;;;;;;;1.20;1.10;;;;;;;;;;10330783;28;20031;-57
2023/04/27 05:32:14;;;;;;;1.10;1.00;;;;;;;;;;10339261;28;20177;-57
2023/04/27 05:37:14;;;;;;;1.92;1.20;;;;;;;;;;10319296;28;20046;-58
2023/04/27 05:42:15;;;;;;;1.92;1.33;;;;;;;;;;10329916;28;20371;-55
2023/04/27 05:47:16;;;;;;;4.97;1.73;;;;;;;;;;10328928;28;20023;-56
2023/04/27 05:52:16;;;;;;;2.65;1.42;;;;;;;;;;10330429;28;20022;-55
2023/04/27 05:57:17;;;;;;;3.28;1.42;;;;;;;;;;10331289;28;20034;-59
2023/04/27 06:02:18;;;;;;;15.60;1.80;;;;;;;;;;10330360;28;20026;-55
2023/04/27 06:07:18;;;;;;;3.75;1.77;;;;;;;;;;10328396;28;20026;-51
2023/04/27 06:12:19;;;;;;;6.25;1.98;;;;;;;;;;10328900;28;20027;-53
2023/04/27 06:17:21;;;;;;;7.75;1.83;;;;;;;;;;10329768;28;20266;-52
2023/04/27 06:22:21;;;;;;;8.35;1.50;;;;;;;;;;10329753;28;20102;-56
2023/04/27 06:27:22;;;;;;;8.85;1.92;;;;;;;;;;10328173;28;20465;-54
2023/04/27 06:32:22;;;;;;;17.60;2.60;;;;;;;;;;10327630;28;20069;-53
2023/04/27 06:37:23;;;;;;;7.30;2.05;;;;;;;;;;10327715;28;20034;-53
2023/04/27 06:42:23;;;;;;;5.43;1.73;;;;;;;;;;10326339;28;20033;-53
2023/04/27 06:47:24;;;;;;;6.20;2.00;;;;;;;;;;10327883;28;20018;-55
2023/04/27 06:52:25;;;;;;;4.88;1.92;;;;;;;;;;10327821;28;20390;-53
2023/04/27 06:57:25;;;;;;;7.40;2.08;;;;;;;;;;10327209;28;20029;-53
2023/04/27 07:02:26;;;;;;;5.53;1.70;;;;;;;;;;10328774;28;20022;-54
2023/04/27 07:07:26;;;;;;;10.75;1.85;;;;;;;;;;10327819;28;20035;-57
2023/04/27 07:12:27;;;;;;;6.95;1.90;;;;;;;;;;10327147;28;20047;-55
2023/04/27 07:17:28;;;;;;;10.43;1.75;;;;;;;;;;10327850;28;20019;-55
2023/04/27 07:22:28;;;;;;;8.95;2.47;;;;;;;;;;10327825;28;20031;-55
2023/04/27 07:27:30;;;;;;;7.38;2.45;;;;;;;;;;10327204;28;20266;-52
2023/04/27 07:32:31;;;;;;;2.83;1.83;;;;;;;;;;10325830;28;20038;-54
2023/04/27 07:37:32;;;;;;;3.45;1.60;;;;;;;;;;10325119;28;20386;-58
2023/04/27 07:42:33;;;;;;;7.05;1.90;;;;;;;;;;10327586;28;20045;-53
2023/04/27 07:47:33;;;;;;;4.25;1.80;;;;;;;;;;10327086;28;20041;-54
2023/04/27 07:52:34;;;;;;;3.78;1.85;;;;;;;;;;10327069;28;20084;-54
2023/04/27 07:57:34;;;;;;;8.35;2.05;;;;;;;;;;10328368;28;20159;-57
2023/04/27 08:02:35;;;;;;;8.52;1.63;;;;;;;;;;10324742;28;20030;-55
2023/04/27 08:07:36;;;;;;;3.30;1.70;;;;;;;;;;10316281;28;20027;-54
2023/04/27 08:12:36;;;;;;;3.17;2.05;;;;;;;;;;10325331;28;20022;-55
2023/04/27 08:17:39;;;;;;;3.28;1.50;;;;;;;;;;10324561;28;20579;-53
2023/04/27 08:22:40;;;;;;;3.63;1.35;;;;;;;;;;10326616;28;20112;-55
2023/04/27 08:27:41;;;;;;;5.22;1.63;;;;;;;;;;10325701;28;20490;-54
2023/04/27 08:32:42;;;;;;;2.38;1.23;;;;;;;;;;10325250;28;20034;-55
2023/04/27 08:37:43;;;;;;;3.30;1.70;;;;;;;;;;10318257;28;20043;-53
2023/04/27 08:42:57;;;;;;;6.35;1.67;;;;;;;;;;10306312;28;20038;-53
2023/04/27 08:47:57;;;;;;;1.60;1.42;;;;;;;;;;10313866;28;20108;-56
2023/04/27 08:52:58;;;;;;;4.35;1.73;;;;;;;;;;10319326;28;20100;-52
2023/04/27 08:58:00;;;;;;;2.05;1.52;;;;;;;;;;10330858;28;20034;-55
2023/04/27 09:03:02;;;;;;;3.38;1.35;;;;;;;;;;10331835;28;20136;-53
2023/04/27 09:08:07;;;;;;;4.85;1.88;;;;;;;;;;10331604;28;20038;-55
2023/04/27 09:13:07;;;;;;;4.13;1.80;;;;;;;;;;10324143;28;20509;-53
2023/04/27 09:18:18;;;;;;;5.63;1.83;;;;;;;;;;10317179;28;20038;-54
2023/04/27 09:23:32;;;;;;;2.47;1.65;;;;;;;;;;10320074;28;20026;-55
2023/04/27 09:28:37;;;;;;;5.20;1.40;;;;;;;;;;10345031;28;20117;-54
2023/04/27 09:33:38;;;;;;;4.97;1.60;;;;;;;;;;10323731;28;20097;-53
2023/04/27 09:38:38;;;;;;;1.65;1.35;;;;;;;;;;10330487;28;20104;-52
2023/04/27 09:43:42;;;;;;;3.55;1.83;;;;;;;;;;10316403;28;20106;-52
2023/04/27 09:48:42;;;;;;;2.92;1.52;;;;;;;;;;10337206;28;20527;-52
2023/04/27 09:53:51;;;;;;;5.47;2.00;;;;;;;;;;10330566;28;20042;-53
2023/04/27 09:59:39;;;;;;;3.33;1.92;;;;;;;;;;10341020;28;20447;-53
2023/04/27 10:05:26;;;;;;;2.45;1.52;;;;;;;;;;10314006;28;20092;-53
2023/04/27 10:10:27;;;;;;;2.53;1.70;;;;;;;;;;10326974;28;20180;-58
2023/04/27 10:15:29;;;;;;;2.80;1.50;;;;;;;;;;10350890;28;20109;-54
2023/04/27 10:20:35;;;;;;;2.65;1.50;;;;;;;;;;10339769;28;20030;-56
2023/04/27 10:25:40;;;;;;;2.05;1.48;;;;;;;;;;10339645;28;20034;-56
2023/04/27 10:30:48;;;;;;;2.50;1.60;;;;;;;;;;10329873;28;20037;-56
2023/04/27 10:35:57;;;;;;;2.22;1.50;;;;;;;;;;10338915;28;20119;-54
2023/04/27 10:41:05;;;;;;;2.25;1.50;;;;;;;;;;10328358;28;20537;-54
2023/04/27 10:46:10;;;;;;;1.83;1.42;;;;;;;;;;10337062;28;20030;-54
2023/04/27 10:51:17;;;;;;;2.55;1.70;;;;;;;;;;10343368;28;20097;-54
2023/04/27 10:56:18;;;;;;;2.10;1.40;;;;;;;;;;10342619;28;20022;-53
2023/04/27 11:01:26;;;;;;;3.97;1.45;;;;;;;;;;10359393;28;20037;-56
2023/04/27 11:06:29;;;;;;;3.80;1.50;;;;;;;;;;10332526;28;20030;-53
2023/04/27 11:11:29;;;;;;;2.60;1.42;;;;;;;;;;10327907;28;20529;-56
2023/04/27 11:16:31;;;;;;;3.03;1.75;;;;;;;;;;10331735;28;20029;-55
2023/04/27 11:21:32;;;;;;;1.70;1.20;;;;;;;;;;10329081;28;20113;-55
2023/04/27 11:26:33;;;;;;;1.52;1.20;;;;;;;;;;10325811;28;20038;-54
2023/04/27 11:31:48;;;;;;;2.00;1.70;;;;;;;;;;10327268;28;20045;-57
2023/04/27 11:37:02;;;;;;;1.58;1.30;;;;;;;;;;10327166;28;20168;-54
2023/04/27 11:42:23;;;;;;;2.58;1.60;;;;;;;;;;10326816;28;20125;-53
2023/04/27 11:47:27;;;;;;;1.75;1.42;;;;;;;;;;10326532;28;20195;-54
2023/04/27 11:52:33;;;;;;;3.42;1.92;;;;;;;;;;10327164;28;20126;-54
2023/04/27 11:57:35;;;;;;;1.50;1.40;;;;;;;;;;10326484;28;20018;-55
2023/04/27 12:02:36;;;;;;;2.78;1.60;;;;;;;;;;10325931;28;20026;-55
2023/04/27 12:07:37;;;;;;;3.25;1.65;;;;;;;;;;10323616;28;20041;-53
2023/04/27 12:12:38;;;;;;;2.15;1.40;;;;;;;;;;10326463;28;20044;-55
2023/04/27 12:17:39;;;;;;;3.65;1.65;;;;;;;;;;10326467;28;20026;-53
2023/04/27 12:22:40;;;;;;;2.22;1.60;;;;;;;;;;10324385;28;20026;-56
2023/04/27 12:27:41;;;;;;;2.28;1.70;;;;;;;;;;10326809;28;20491;-57
2023/04/27 12:32:42;;;;;;;2.17;1.52;;;;;;;;;;10324784;28;20228;-58
2023/04/27 12:37:43;;;;;;;2.78;1.40;;;;;;;;;;10323987;28;20706;-57
2023/04/27 12:42:43;;;;;;;1.55;1.30;;;;;;;;;;10320853;28;20034;-55
2023/04/27 12:47:44;;;;;;;1.65;1.20;;;;;;;;;;10324199;28;20030;-56
2023/04/27 12:52:44;;;;;;;1.33;1.23;;;;;;;;;;10323566;28;20490;-57
2023/04/27 12:57:45;;;;;;;1.73;1.30;;;;;;;;;;10323767;28;20038;-58
2023/04/27 13:02:46;;;;;;;1.35;1.25;;;;;;;;;;10316917;28;20390;-57
2023/04/27 13:07:46;;;;;;;2.22;1.50;;;;;;;;;;10327842;28;20383;-56
2023/04/27 13:12:47;;;;;;;3.15;1.60;;;;;;;;;;10337984;28;20042;-55
2023/04/27 13:17:48;;;;;;;2.78;1.58;;;;;;;;;;10347070;28;20033;-54
2023/04/27 13:22:48;;;;;;;2.10;1.30;;;;;;;;;;10354842;28;20061;-54
2023/04/27 13:27:50;;;;;;;1.92;1.38;;;;;;;;;;10317978;28;20042;-54
2023/04/27 13:32:52;;;;;;;3.22;1.67;;;;;;;;;;10330890;28;20127;-56
2023/04/27 13:37:55;;;;;;;3.72;1.27;;;;;;;;;;10326101;28;20050;-58
2023/04/27 13:42:56;;;;;;;62.33;3.80;;;;;;;;;;10341645;28;20030;-59
2023/04/27 13:47:56;;;;;;;72.38;4.63;;;;;;;;;;10339901;28;20038;-59
2023/04/27 13:52:57;;;;;;;68.88;5.60;;;;;;;;;;10330570;28;20214;-59
2023/04/27 13:57:58;;;;;;;37.30;4.43;;;;;;;;;;10328628;28;20492;-58
2023/04/27 14:03:00;;;;;;;22.05;3.42;;;;;;;;;;10334227;28;20027;-58
2023/04/27 14:08:00;;;;;;;13.70;2.33;;;;;;;;;;10330002;28;20056;-59
2023/04/27 14:13:01;;;;;;;13.57;2.63;;;;;;;;;;10329069;28;20037;-59
2023/04/27 14:18:04;;;;;;;16.10;2.70;;;;;;;;;;10329101;28;20504;-60
2023/04/27 14:23:05;;;;;;;17.58;2.38;;;;;;;;;;10327976;28;20038;-60
2023/04/27 14:28:08;;;;;;;4.00;2.22;;;;;;;;;;10326459;28;20035;-60
2023/04/27 14:33:09;;;;;;;12.05;2.33;;;;;;;;;;10326339;28;20089;-60
2023/04/27 14:38:10;;;;;;;13.50;2.78;;;;;;;;;;10323479;28;20443;-59
2023/04/27 14:43:14;;;;;;;10.60;2.05;;;;;;;;;;10329292;28;20031;-58
2023/04/27 14:48:15;;;;;;;7.65;2.05;;;;;;;;;;10328682;28;20026;-59
2023/04/27 14:53:16;;;;;;;4.85;1.70;;;;;;;;;;10317836;28;20058;-59
2023/04/27 14:58:16;;;;;;;19.55;2.40;;;;;;;;;;10317726;28;20026;-59
2023/04/27 15:03:17;;;;;;;14.40;2.05;;;;;;;;;;10300951;28;20494;-55
2023/04/27 15:08:17;;;;;;;24.10;2.83;;;;;;;;;;10318594;28;21412;-58
2023/04/27 15:13:18;;;;;;;9.45;2.28;;;;;;;;;;10313095;28;20422;-58
2023/04/27 15:18:18;;;;;;;17.67;2.72;;;;;;;;;;10320024;28;20026;-58
2023/04/27 15:23:20;;;;;;;13.18;2.88;;;;;;;;;;10327199;28;20174;-59
2023/04/27 15:28:21;;;;;;;20.00;2.78;;;;;;;;;;10311316;28;20054;-59
2023/04/27 15:33:23;;;;;;;10.95;2.42;;;;;;;;;;10312075;28;20425;-59
2023/04/27 15:38:24;;;;;;;8.23;1.90;;;;;;;;;;10315935;28;20047;-59
2023/04/27 15:43:25;;;;;;;5.40;2.38;;;;;;;;;;10310036;28;20038;-60
2023/04/27 15:48:25;;;;;;;5.07;1.73;;;;;;;;;;10315289;28;20716;-60
2023/04/27 15:53:26;;;;;;;3.85;1.88;;;;;;;;;;10310885;28;20062;-59
2023/04/27 15:58:26;;;;;;;3.72;1.55;;;;;;;;;;10312871;28;20038;-60
2023/04/27 16:03:27;;;;;;;5.40;1.92;;;;;;;;;;10308309;28;20447;-60
2023/04/27 16:08:29;;;;;;;3.35;1.95;;;;;;;;;;10310628;28;20387;-59
2023/04/27 16:13:31;;;;;;;11.85;2.58;;;;;;;;;;10324862;28;20038;-54
2023/04/27 16:18:33;;;;;;;29.85;3.25;;;;;;;;;;10322106;28;20190;-57
2023/04/27 16:23:34;;;;;;;8.70;2.78;;;;;;;;;;10321708;28;20037;-55
2023/04/27 16:28:35;;;;;;;17.63;2.58;;;;;;;;;;10345421;28;20033;-55
2023/04/27 16:33:35;;;;;;;20.70;1.92;;;;;;;;;;10330414;28;20041;-54
2023/04/27 16:38:36;;;;;;;4.55;1.92;;;;;;;;;;10326826;28;20046;-55
2023/04/27 16:43:36;;;;;;;4.55;1.80;;;;;;;;;;10331227;28;20030;-54
2023/04/27 16:48:37;;;;;;;3.50;1.80;;;;;;;;;;10331791;28;20959;-54
2023/04/27 16:53:37;;;;;;;3.72;1.90;;;;;;;;;;10329378;28;20034;-55
2023/04/27 16:58:38;;;;;;;6.80;2.08;;;;;;;;;;10321908;28;20036;-53
2023/04/27 17:03:39;;;;;;;7.28;2.15;;;;;;;;;;10330468;28;20014;-54
2023/04/27 17:08:40;;;;;;;4.20;1.90;;;;;;;;;;10335027;28;20039;-54
2023/04/27 17:13:41;;;;;;;5.22;1.67;;;;;;;;;;10346877;28;20398;-54
2023/04/27 17:18:43;;;;;;;3.25;2.10;;;;;;;;;;10329486;28;20030;-54
2023/04/27 17:23:45;;;;;;;3.05;1.70;;;;;;;;;;10329096;28;20510;-55
2023/04/27 17:28:47;;;;;;;3.95;1.48;;;;;;;;;;10333794;28;20065;-53
2023/04/27 17:33:48;;;;;;;2.67;1.88;;;;;;;;;;10320742;28;20034;-55
2023/04/27 17:38:49;;;;;;;4.97;1.70;;;;;;;;;;10322542;28;20089;-53
2023/04/27 17:43:49;;;;;;;4.32;1.73;;;;;;;;;;10326222;28;20552;-54
2023/04/27 17:48:50;;;;;;;2.38;1.60;;;;;;;;;;10321610;28;20421;-52
2023/04/27 17:53:51;;;;;;;4.05;1.70;;;;;;;;;;10321963;28;20085;-54
2023/04/27 17:58:51;;;;;;;4.38;1.80;;;;;;;;;;10313092;28;20037;-54
2023/04/27 18:03:52;;;;;;;4.75;1.60;;;;;;;;;;10326790;28;20037;-54
2023/04/27 18:08:52;;;;;;;3.10;1.83;;;;;;;;;;10324854;28;20042;-55
2023/04/27 18:13:54;;;;;;;7.03;1.90;;;;;;;;;;10325945;28;20049;-53
2023/04/27 18:18:55;;;;;;;4.72;1.90;;;;;;;;;;10324678;28;20038;-54
2023/04/27 18:23:56;;;;;;;3.33;1.90;;;;;;;;;;10325913;28;20445;-52
2023/04/27 18:28:57;;;;;;;4.95;1.95;;;;;;;;;;10329479;28;20026;-52
2023/04/27 18:33:58;;;;;;;6.20;1.90;;;;;;;;;;10326935;28;20026;-53
2023/04/27 18:38:59;;;;;;;3.72;1.73;;;;;;;;;;10320205;28;20053;-56
2023/04/27 18:44:04;;;;;;;2.58;1.60;;;;;;;;;;10318504;28;20035;-53
2023/04/27 18:49:05;;;;;;;8.27;2.00;;;;;;;;;;10307636;28;20100;-55
2023/04/27 18:54:05;;;;;;;3.35;1.75;;;;;;;;;;10326473;28;20100;-51
2023/04/27 18:59:06;;;;;;;2.90;1.77;;;;;;;;;;10328084;28;20045;-57
2023/04/27 19:04:07;;;;;;;3.83;1.77;;;;;;;;;;10324052;28;20049;-59
2023/04/27 19:09:08;;;;;;;4.32;1.48;;;;;;;;;;10326313;28;20093;-57
2023/04/27 19:14:08;;;;;;;5.35;2.17;;;;;;;;;;10322913;28;20034;-58
2023/04/27 19:19:09;;;;;;;4.68;1.52;;;;;;;;;;10314935;28;20267;-58
2023/04/27 19:24:09;;;;;;;9.15;2.13;;;;;;;;;;10328680;28;20096;-59
2023/04/27 19:29:10;;;;;;;11.98;2.22;;;;;;;;;;10325352;28;20470;-58
2023/04/27 19:34:10;;;;;;;7.32;2.33;;;;;;;;;;10318970;28;20371;-56
2023/04/27 19:39:12;;;;;;;5.18;2.17;;;;;;;;;;10326929;28;20046;-59
2023/04/27 19:44:13;;;;;;;6.75;2.17;;;;;;;;;;10326350;28;20033;-57
2023/04/27 19:49:14;;;;;;;11.20;2.78;;;;;;;;;;10328195;28;20026;-53
2023/04/27 19:54:15;;;;;;;7.47;2.22;;;;;;;;;;10318897;28;20038;-53
2023/04/27 19:59:16;;;;;;;11.65;2.67;;;;;;;;;;10326139;28;20026;-53
2023/04/27 20:04:16;;;;;;;16.40;2.85;;;;;;;;;;10323281;28;20034;-54
2023/04/27 20:09:17;;;;;;;16.60;2.60;;;;;;;;;;10322385;28;20033;-51
2023/04/27 20:14:18;;;;;;;6.97;2.40;;;;;;;;;;10325124;28;20394;-52
2023/04/27 20:19:19;;;;;;;5.70;2.42;;;;;;;;;;10319774;28;20469;-52
2023/04/27 20:24:21;;;;;;;5.07;2.30;;;;;;;;;;10317718;28;20135;-54
2023/04/27 20:29:21;;;;;;;6.95;2.38;;;;;;;;;;10321377;28;20027;-53
2023/04/27 20:34:22;;;;;;;6.53;2.38;;;;;;;;;;10323810;28;20398;-53
2023/04/27 20:39:23;;;;;;;14.00;2.20;;;;;;;;;;10324292;28;20054;-51
2023/04/27 20:44:23;;;;;;;7.07;3.00;;;;;;;;;;10318777;28;20038;-51
2023/04/27 20:49:24;;;;;;;7.10;2.38;;;;;;;;;;10321916;28;20045;-55
2023/04/27 20:54:24;;;;;;;5.65;2.13;;;;;;;;;;10324282;28;20041;-51
2023/04/27 20:59:25;;;;;;;7.05;2.25;;;;;;;;;;10329005;28;20037;-52
2023/04/27 21:04:26;;;;;;;5.82;2.17;;;;;;;;;;10321693;28;20042;-54
2023/04/27 21:09:26;;;;;;;6.10;2.38;;;;;;;;;;10323303;28;20026;-52
2023/04/27 21:14:27;;;;;;;6.90;2.60;;;;;;;;;;10323727;28;20025;-53
2023/04/27 21:19:27;;;;;;;4.15;2.10;;;;;;;;;;10323490;28;20049;-55
2023/04/27 21:24:28;;;;;;;9.27;2.50;;;;;;;;;;10321268;28;20038;-55
2023/04/27 21:29:29;;;;;;;8.35;2.30;;;;;;;;;;10321808;28;20038;-54
2023/04/27 21:34:29;;;;;;;15.32;2.20;;;;;;;;;;10323872;28;20036;-57
2023/04/27 21:39:30;;;;;;;7.15;2.42;;;;;;;;;;10322814;28;20073;-57
2023/04/27 21:44:30;;;;;;;9.10;2.55;;;;;;;;;;10321387;28;20505;-57
2023/04/27 21:49:31;;;;;;;10.77;3.00;;;;;;;;;;10322641;28;20553;-56
2023/04/27 21:54:32;;;;;;;20.08;2.88;;;;;;;;;;10318710;28;20490;-57
2023/04/27 21:59:32;;;;;;;11.18;2.90;;;;;;;;;;10316147;28;20385;-59
2023/04/27 22:04:36;;;;;;;12.55;2.30;;;;;;;;;;10339729;28;20235;-60
2023/04/27 22:09:37;;;;;;;9.68;2.50;;;;;;;;;;10332070;28;20096;-59
2023/04/27 22:14:37;;;;;;;9.05;2.70;;;;;;;;;;10325493;28;20543;-59
2023/04/27 22:19:38;;;;;;;6.78;2.40;;;;;;;;;;10326460;28;20490;-59
2023/04/27 22:24:39;;;;;;;8.70;2.40;;;;;;;;;;10294344;28;20045;-54
2023/04/27 22:29:39;;;;;;;7.28;2.30;;;;;;;;;;10323711;28;20018;-56
2023/04/27 22:34:40;;;;;;;8.77;2.40;;;;;;;;;;10323478;28;20047;-55
2023/04/27 22:39:41;;;;;;;9.02;2.40;;;;;;;;;;10325270;28;20042;-57
2023/04/27 22:44:42;;;;;;;7.13;2.05;;;;;;;;;;10321584;28;20053;-55
2023/04/27 22:49:42;;;;;;;12.15;2.50;;;;;;;;;;10326203;28;20053;-56
2023/04/27 22:54:43;;;;;;;6.45;2.80;;;;;;;;;;10324617;28;20061;-57
2023/04/27 22:59:48;;;;;;;8.55;2.85;;;;;;;;;;10327249;28;20038;-57
2023/04/27 23:04:48;;;;;;;5.75;2.28;;;;;;;;;;10328621;28;20035;-58
2023/04/27 23:09:49;;;;;;;6.40;2.47;;;;;;;;;;10324884;28;20038;-56
2023/04/27 23:14:50;;;;;;;7.43;2.40;;;;;;;;;;10330912;28;20371;-58
2023/04/27 23:19:50;;;;;;;8.38;2.25;;;;;;;;;;10327961;28;20038;-57
2023/04/27 23:24:51;;;;;;;7.03;2.30;;;;;;;;;;10329122;28;20023;-57
2023/04/27 23:29:52;;;;;;;7.45;2.33;;;;;;;;;;10328033;28;20034;-57
2023/04/27 23:34:53;;;;;;;6.10;2.60;;;;;;;;;;10327029;28;20128;-57
2023/04/27 23:39:54;;;;;;;9.63;2.45;;;;;;;;;;10323513;28;20750;-57
2023/04/27 23:44:54;;;;;;;7.05;2.50;;;;;;;;;;10326563;28;20494;-57
2023/04/27 23:49:56;;;;;;;4.53;2.08;;;;;;;;;;10325643;28;20038;-56
2023/04/27 23:54:57;;;;;;;5.32;2.38;;;;;;;;;;10320153;28;20030;-58
2023/04/27 23:59:57;;;;;;;6.43;2.20;;;;;;;;;;10322470;28;20479;-60
